sensor_id;sensor_type;location;lat;lon;timestamp;pressure;altitude;pressure_sealevel;temperature;humidity
21576;BME280;10949;27.222;78.010;2022-11-11T00:00:16;99677.53;;;21.76;73.75
21576;BME280;10949;27.222;78.010;2022-11-11T00:03:06;99684.44;;;21.92;73.89
21576;BME280;10949;27.222;78.010;2022-11-11T00:06:00;99681.94;;;21.91;73.95
21576;BME280;10949;27.222;78.010;2022-11-11T00:08:52;99693.34;;;22.53;71.86
21576;BME280;10949;27.222;78.010;2022-11-11T00:11:42;99699.63;;;22.47;71.46
21576;BME280;10949;27.222;78.010;2022-11-11T00:14:32;99705.16;;;21.86;73.97
21576;BME280;10949;27.222;78.010;2022-11-11T00:17:22;99706.00;;;21.80;74.10
21576;BME280;10949;27.222;78.010;2022-11-11T00:20:29;99708.31;;;21.83;74.79
21576;BME280;10949;27.222;78.010;2022-11-11T00:23:35;99705.59;;;21.83;74.89
21576;BME280;10949;27.222;78.010;2022-11-11T00:26:44;99707.47;;;21.90;73.78
21576;BME280;10949;27.222;78.010;2022-11-11T00:29:35;99706.78;;;22.41;72.35
21576;BME280;10949;27.222;78.010;2022-11-11T00:32:26;99715.75;;;22.55;71.05
21576;BME280;10949;27.222;78.010;2022-11-11T00:35:17;99717.06;;;22.06;72.93
21576;BME280;10949;27.222;78.010;2022-11-11T00:38:24;99729.88;;;21.58;74.77
21576;BME280;10949;27.222;78.010;2022-11-11T00:41:32;99726.09;;;21.73;74.34
21576;BME280;10949;27.222;78.010;2022-11-11T00:44:24;99731.75;;;21.64;74.82
21576;BME280;10949;27.222;78.010;2022-11-11T00:47:14;99730.00;;;21.43;75.68
21576;BME280;10949;27.222;78.010;2022-11-11T00:50:22;99744.75;;;21.69;75.52
21576;BME280;10949;27.222;78.010;2022-11-11T00:53:31;99734.63;;;22.30;72.77
21576;BME280;10949;27.222;78.010;2022-11-11T00:56:22;99734.66;;;22.10;72.81
21576;BME280;10949;27.222;78.010;2022-11-11T00:59:13;99750.97;;;21.56;75.06
21576;BME280;10949;27.222;78.010;2022-11-11T01:02:05;99753.28;;;21.52;74.80
21576;BME280;10949;27.222;78.010;2022-11-11T01:04:55;99753.25;;;21.39;75.58
21576;BME280;10949;27.222;78.010;2022-11-11T01:07:48;99759.28;;;21.34;75.41
21576;BME280;10949;27.222;78.010;2022-11-11T01:10:39;99763.66;;;21.29;75.87
21576;BME280;10949;27.222;78.010;2022-11-11T01:13:36;99766.69;;;21.54;74.88
21576;BME280;10949;27.222;78.010;2022-11-11T01:16:27;99766.75;;;22.08;72.68
21576;BME280;10949;27.222;78.010;2022-11-11T01:19:19;99768.19;;;22.03;72.67
21576;BME280;10949;27.222;78.010;2022-11-11T01:22:09;99778.97;;;21.43;74.49
21576;BME280;10949;27.222;78.010;2022-11-11T01:24:59;99776.00;;;21.25;75.36
21576;BME280;10949;27.222;78.010;2022-11-11T01:27:50;99781.69;;;21.37;74.80
21576;BME280;10949;27.222;78.010;2022-11-11T01:30:39;99783.53;;;21.23;75.59
21576;BME280;10949;27.222;78.010;2022-11-11T01:33:30;99783.47;;;21.58;74.82
21576;BME280;10949;27.222;78.010;2022-11-11T01:36:25;99777.28;;;22.89;73.98
21576;BME280;10949;27.222;78.010;2022-11-11T01:39:16;99776.81;;;24.34;67.25
21576;BME280;10949;27.222;78.010;2022-11-11T01:42:06;99783.84;;;23.98;67.10
21576;BME280;10949;27.222;78.010;2022-11-11T01:44:55;99787.09;;;23.88;66.60
21576;BME280;10949;27.222;78.010;2022-11-11T01:47:47;99782.94;;;23.72;67.35
21576;BME280;10949;27.222;78.010;2022-11-11T01:51:16;99786.66;;;23.52;67.20
21576;BME280;10949;27.222;78.010;2022-11-11T01:54:13;99788.03;;;23.68;66.79
21576;BME280;10949;27.222;78.010;2022-11-11T01:57:06;99798.56;;;23.58;67.46
21576;BME280;10949;27.222;78.010;2022-11-11T02:00:01;99801.69;;;23.68;66.67
21576;BME280;10949;27.222;78.010;2022-11-11T02:02:54;99805.44;;;23.74;66.72
21576;BME280;10949;27.222;78.010;2022-11-11T02:05:47;99806.38;;;23.54;67.43
21576;BME280;10949;27.222;78.010;2022-11-11T02:08:36;99810.97;;;23.61;67.25
21576;BME280;10949;27.222;78.010;2022-11-11T02:11:31;99816.13;;;23.75;67.22
21576;BME280;10949;27.222;78.010;2022-11-11T02:14:42;99818.34;;;23.92;66.80
21576;BME280;10949;27.222;78.010;2022-11-11T02:17:34;99823.81;;;23.92;66.84
21576;BME280;10949;27.222;78.010;2022-11-11T02:20:26;99810.09;;;23.67;67.86
21576;BME280;10949;27.222;78.010;2022-11-11T02:23:21;99825.25;;;23.95;66.56
21576;BME280;10949;27.222;78.010;2022-11-11T02:26:17;99829.81;;;23.69;67.81
21576;BME280;10949;27.222;78.010;2022-11-11T02:29:09;99816.94;;;23.76;67.06
21576;BME280;10949;27.222;78.010;2022-11-11T02:32:01;99818.56;;;23.90;66.85
21576;BME280;10949;27.222;78.010;2022-11-11T02:34:51;99829.66;;;23.96;66.78
21576;BME280;10949;27.222;78.010;2022-11-11T02:37:45;99836.41;;;23.93;66.43
21576;BME280;10949;27.222;78.010;2022-11-11T02:40:37;99833.78;;;24.05;66.39
21576;BME280;10949;27.222;78.010;2022-11-11T02:43:49;99840.09;;;24.05;65.98
21576;BME280;10949;27.222;78.010;2022-11-11T02:46:39;99842.66;;;24.00;66.34
21576;BME280;10949;27.222;78.010;2022-11-11T02:49:30;99850.69;;;23.95;66.56
21576;BME280;10949;27.222;78.010;2022-11-11T02:52:21;99847.63;;;24.10;65.63
21576;BME280;10949;27.222;78.010;2022-11-11T02:55:11;99858.50;;;24.17;65.42
21576;BME280;10949;27.222;78.010;2022-11-11T02:58:01;99859.56;;;24.16;65.88
21576;BME280;10949;27.222;78.010;2022-11-11T03:00:54;99867.81;;;24.09;66.02
21576;BME280;10949;27.222;78.010;2022-11-11T03:03:45;99874.88;;;24.23;66.03
21576;BME280;10949;27.222;78.010;2022-11-11T03:06:36;99872.28;;;24.29;65.75
21576;BME280;10949;27.222;78.010;2022-11-11T03:09:26;99884.00;;;24.36;65.38
21576;BME280;10949;27.222;78.010;2022-11-11T03:12:17;99888.34;;;24.18;65.61
21576;BME280;10949;27.222;78.010;2022-11-11T03:15:08;99888.34;;;24.18;66.12
21576;BME280;10949;27.222;78.010;2022-11-11T03:18:01;99884.97;;;24.16;65.83
21576;BME280;10949;27.222;78.010;2022-11-11T03:20:51;99893.78;;;24.25;65.73
21576;BME280;10949;27.222;78.010;2022-11-11T03:24:14;99900.03;;;24.32;65.66
21576;BME280;10949;27.222;78.010;2022-11-11T03:27:04;99904.69;;;24.25;65.90
21576;BME280;10949;27.222;78.010;2022-11-11T03:29:54;99909.09;;;24.26;66.15
21576;BME280;10949;27.222;78.010;2022-11-11T03:32:45;99913.91;;;24.31;66.25
21576;BME280;10949;27.222;78.010;2022-11-11T03:35:39;99909.78;;;24.47;65.59
21576;BME280;10949;27.222;78.010;2022-11-11T03:38:30;99909.22;;;24.38;66.07
21576;BME280;10949;27.222;78.010;2022-11-11T03:41:19;99914.25;;;24.41;65.50
21576;BME280;10949;27.222;78.010;2022-11-11T03:44:10;99925.88;;;24.61;65.53
21576;BME280;10949;27.222;78.010;2022-11-11T03:47:00;99923.22;;;24.48;65.78
21576;BME280;10949;27.222;78.010;2022-11-11T03:49:50;99937.13;;;24.47;65.95
21576;BME280;10949;27.222;78.010;2022-11-11T03:52:42;99937.94;;;24.47;65.46
21576;BME280;10949;27.222;78.010;2022-11-11T03:55:33;99947.81;;;24.48;65.49
21576;BME280;10949;27.222;78.010;2022-11-11T03:58:25;99935.78;;;24.56;64.44
21576;BME280;10949;27.222;78.010;2022-11-11T04:01:17;99938.91;;;24.59;64.36
21576;BME280;10949;27.222;78.010;2022-11-11T04:04:20;99948.97;;;24.66;64.32
21576;BME280;10949;27.222;78.010;2022-11-11T04:07:27;99946.91;;;24.61;64.69
21576;BME280;10949;27.222;78.010;2022-11-11T04:10:36;99946.19;;;24.72;64.21
21576;BME280;10949;27.222;78.010;2022-11-11T04:13:27;99948.16;;;24.65;64.50
21576;BME280;10949;27.222;78.010;2022-11-11T04:16:36;99946.25;;;24.66;65.09
21576;BME280;10949;27.222;78.010;2022-11-11T04:19:27;99947.38;;;24.83;64.32
21576;BME280;10949;27.222;78.010;2022-11-11T04:22:39;99941.91;;;24.83;64.42
21576;BME280;10949;27.222;78.010;2022-11-11T04:25:36;99941.59;;;24.91;64.73
21576;BME280;10949;27.222;78.010;2022-11-11T04:28:37;99934.84;;;24.94;64.84
21576;BME280;10949;27.222;78.010;2022-11-11T04:31:44;99936.25;;;25.03;64.49
21576;BME280;10949;27.222;78.010;2022-11-11T04:34:50;99934.63;;;24.95;64.18
21576;BME280;10949;27.222;78.010;2022-11-11T04:37:44;99935.69;;;24.94;64.50
21576;BME280;10949;27.222;78.010;2022-11-11T04:40:39;99937.78;;;25.18;64.39
21576;BME280;10949;27.222;78.010;2022-11-11T04:43:46;99943.47;;;25.16;64.39
21576;BME280;10949;27.222;78.010;2022-11-11T04:46:53;99937.00;;;25.29;64.32
21576;BME280;10949;27.222;78.010;2022-11-11T04:49:43;99939.09;;;25.34;64.29
21576;BME280;10949;27.222;78.010;2022-11-11T04:52:33;99932.78;;;25.33;64.23
21576;BME280;10949;27.222;78.010;2022-11-11T04:55:25;99922.13;;;25.43;63.98
21576;BME280;10949;27.222;78.010;2022-11-11T04:58:36;99914.22;;;25.35;64.24
21576;BME280;10949;27.222;78.010;2022-11-11T05:01:27;99914.28;;;25.47;64.01
21576;BME280;10949;27.222;78.010;2022-11-11T05:04:34;99909.56;;;25.36;60.82
21576;BME280;10949;27.222;78.010;2022-11-11T05:07:26;99910.78;;;25.40;61.82
21576;BME280;10949;27.222;78.010;2022-11-11T05:10:33;99901.97;;;25.56;61.05
21576;BME280;10949;27.222;78.010;2022-11-11T05:13:25;99892.09;;;25.37;56.69
21576;BME280;10949;27.222;78.010;2022-11-11T05:16:40;99894.03;;;25.29;55.70
21576;BME280;10949;27.222;78.010;2022-11-11T05:19:50;99888.75;;;25.53;58.25
21576;BME280;10949;27.222;78.010;2022-11-11T05:22:56;99889.03;;;25.63;58.88
21576;BME280;10949;27.222;78.010;2022-11-11T05:25:47;99883.94;;;25.67;57.90
21576;BME280;10949;27.222;78.010;2022-11-11T05:28:37;99874.69;;;25.80;57.18
21576;BME280;10949;27.222;78.010;2022-11-11T05:31:30;99880.53;;;25.84;56.78
21576;BME280;10949;27.222;78.010;2022-11-11T05:34:22;99878.03;;;25.82;56.99
21576;BME280;10949;27.222;78.010;2022-11-11T05:37:14;99869.34;;;25.85;56.12
21576;BME280;10949;27.222;78.010;2022-11-11T05:40:06;99874.97;;;25.90;57.86
21576;BME280;10949;27.222;78.010;2022-11-11T05:42:59;99873.66;;;25.93;56.84
21576;BME280;10949;27.222;78.010;2022-11-11T05:45:50;99872.03;;;26.04;57.43
21576;BME280;10949;27.222;78.010;2022-11-11T05:48:42;99866.56;;;26.04;54.22
21576;BME280;10949;27.222;78.010;2022-11-11T05:51:47;99864.91;;;26.03;57.03
21576;BME280;10949;27.222;78.010;2022-11-11T05:54:38;99874.81;;;26.15;52.83
21576;BME280;10949;27.222;78.010;2022-11-11T05:57:29;99861.56;;;26.01;56.58
21576;BME280;10949;27.222;78.010;2022-11-11T06:00:19;99860.50;;;26.13;52.89
21576;BME280;10949;27.222;78.010;2022-11-11T06:03:09;99857.69;;;26.32;51.24
21576;BME280;10949;27.222;78.010;2022-11-11T06:06:01;99861.72;;;26.29;51.95
21576;BME280;10949;27.222;78.010;2022-11-11T06:08:54;99854.47;;;26.35;49.92
21576;BME280;10949;27.222;78.010;2022-11-11T06:11:46;99846.13;;;26.42;49.08
21576;BME280;10949;27.222;78.010;2022-11-11T06:14:36;99845.75;;;26.26;51.94
21576;BME280;10949;27.222;78.010;2022-11-11T06:17:28;99840.88;;;26.28;51.65
21576;BME280;10949;27.222;78.010;2022-11-11T06:20:20;99830.38;;;26.49;51.94
21576;BME280;10949;27.222;78.010;2022-11-11T06:23:12;99821.31;;;26.60;50.07
21576;BME280;10949;27.222;78.010;2022-11-11T06:26:08;99817.53;;;26.61;49.38
21576;BME280;10949;27.222;78.010;2022-11-11T06:29:05;99810.63;;;26.47;52.48
21576;BME280;10949;27.222;78.010;2022-11-11T06:31:55;99798.34;;;26.49;48.94
21576;BME280;10949;27.222;78.010;2022-11-11T06:34:46;99792.97;;;26.66;48.77
21576;BME280;10949;27.222;78.010;2022-11-11T06:37:36;99792.03;;;26.73;51.38
21576;BME280;10949;27.222;78.010;2022-11-11T06:40:30;99790.84;;;26.69;50.97
21576;BME280;10949;27.222;78.010;2022-11-11T06:43:22;99783.88;;;26.78;49.37
21576;BME280;10949;27.222;78.010;2022-11-11T06:46:19;99768.47;;;26.89;49.25
21576;BME280;10949;27.222;78.010;2022-11-11T06:49:11;99773.47;;;26.92;47.13
21576;BME280;10949;27.222;78.010;2022-11-11T06:52:03;99770.66;;;26.87;47.46
21576;BME280;10949;27.222;78.010;2022-11-11T06:54:54;99769.63;;;27.05;46.74
21576;BME280;10949;27.222;78.010;2022-11-11T06:57:45;99764.81;;;27.24;46.08
21576;BME280;10949;27.222;78.010;2022-11-11T07:00:39;99765.06;;;27.10;45.55
21576;BME280;10949;27.222;78.010;2022-11-11T07:03:29;99752.91;;;27.06;45.97
21576;BME280;10949;27.222;78.010;2022-11-11T07:06:21;99746.84;;;27.04;47.81
21576;BME280;10949;27.222;78.010;2022-11-11T07:09:11;99744.81;;;27.40;45.29
21576;BME280;10949;27.222;78.010;2022-11-11T07:12:03;99737.19;;;27.30;45.29
21576;BME280;10949;27.222;78.010;2022-11-11T07:14:54;99732.66;;;27.36;43.93
21576;BME280;10949;27.222;78.010;2022-11-11T07:17:51;99733.91;;;27.16;46.21
21576;BME280;10949;27.222;78.010;2022-11-11T07:20:43;99732.50;;;27.14;47.23
21576;BME280;10949;27.222;78.010;2022-11-11T07:23:33;99737.50;;;27.46;44.61
21576;BME280;10949;27.222;78.010;2022-11-11T07:26:23;99726.19;;;27.30;45.73
21576;BME280;10949;27.222;78.010;2022-11-11T07:29:13;99737.75;;;27.44;42.86
21576;BME280;10949;27.222;78.010;2022-11-11T07:32:05;99723.31;;;27.08;46.55
21576;BME280;10949;27.222;78.010;2022-11-11T07:34:57;99721.22;;;26.98;46.98
21576;BME280;10949;27.222;78.010;2022-11-11T07:37:48;99724.94;;;26.92;46.26
21576;BME280;10949;27.222;78.010;2022-11-11T07:40:41;99719.28;;;26.99;45.26
21576;BME280;10949;27.222;78.010;2022-11-11T07:43:32;99712.53;;;27.18;41.64
21576;BME280;10949;27.222;78.010;2022-11-11T07:46:22;99706.50;;;27.05;45.24
21576;BME280;10949;27.222;78.010;2022-11-11T07:49:13;99708.06;;;27.00;39.67
21576;BME280;10949;27.222;78.010;2022-11-11T07:52:06;99703.56;;;27.23;40.36
21576;BME280;10949;27.222;78.010;2022-11-11T07:54:57;99699.16;;;27.22;38.25
21576;BME280;10949;27.222;78.010;2022-11-11T07:57:51;99692.31;;;27.37;40.12
21576;BME280;10949;27.222;78.010;2022-11-11T08:00:41;99688.66;;;27.19;44.28
21576;BME280;10949;27.222;78.010;2022-11-11T08:03:33;99679.75;;;27.12;41.70
21576;BME280;10949;27.222;78.010;2022-11-11T08:06:38;99673.00;;;27.03;40.91
21576;BME280;10949;27.222;78.010;2022-11-11T08:09:33;99674.16;;;27.07;42.69
21576;BME280;10949;27.222;78.010;2022-11-11T08:12:24;99666.25;;;27.10;40.74
21576;BME280;10949;27.222;78.010;2022-11-11T08:15:41;99657.78;;;27.12;40.26
21576;BME280;10949;27.222;78.010;2022-11-11T08:18:35;99653.78;;;27.03;44.43
21576;BME280;10949;27.222;78.010;2022-11-11T08:21:27;99652.53;;;27.56;36.80
21576;BME280;10949;27.222;78.010;2022-11-11T08:24:17;99643.88;;;27.47;40.08
21576;BME280;10949;27.222;78.010;2022-11-11T08:27:32;99643.16;;;27.23;40.24
21576;BME280;10949;27.222;78.010;2022-11-11T08:30:22;99639.88;;;27.38;40.42
21576;BME280;10949;27.222;78.010;2022-11-11T08:33:16;99635.88;;;27.46;38.03
21576;BME280;10949;27.222;78.010;2022-11-11T08:36:33;99625.09;;;27.39;40.64
21576;BME280;10949;27.222;78.010;2022-11-11T08:39:26;99629.69;;;27.22;40.98
21576;BME280;10949;27.222;78.010;2022-11-11T08:42:16;99631.06;;;27.53;35.95
21576;BME280;10949;27.222;78.010;2022-11-11T08:45:10;99615.22;;;27.60;37.82
21576;BME280;10949;27.222;78.010;2022-11-11T08:48:01;99620.66;;;27.55;35.50
21576;BME280;10949;27.222;78.010;2022-11-11T08:50:52;99616.16;;;27.32;37.92
21576;BME280;10949;27.222;78.010;2022-11-11T08:53:51;99609.13;;;27.24;39.42
21576;BME280;10949;27.222;78.010;2022-11-11T08:56:49;99604.44;;;27.37;39.67
21576;BME280;10949;27.222;78.010;2022-11-11T08:59:41;99606.28;;;27.48;37.51
21576;BME280;10949;27.222;78.010;2022-11-11T09:02:33;99602.25;;;27.39;40.08
21576;BME280;10949;27.222;78.010;2022-11-11T09:05:29;99595.34;;;27.53;36.43
21576;BME280;10949;27.222;78.010;2022-11-11T09:08:19;99583.38;;;27.59;35.57
21576;BME280;10949;27.222;78.010;2022-11-11T09:11:12;99598.59;;;27.50;36.61
21576;BME280;10949;27.222;78.010;2022-11-11T09:14:05;99587.28;;;27.63;36.17
21576;BME280;10949;27.222;78.010;2022-11-11T09:16:56;99589.56;;;27.72;35.67
21576;BME280;10949;27.222;78.010;2022-11-11T09:19:48;99592.28;;;27.66;33.91
21576;BME280;10949;27.222;78.010;2022-11-11T09:22:42;99597.41;;;27.80;33.89
21576;BME280;10949;27.222;78.010;2022-11-11T09:25:32;99580.53;;;27.54;36.67
21576;BME280;10949;27.222;78.010;2022-11-11T09:28:30;99589.56;;;27.72;36.06
21576;BME280;10949;27.222;78.010;2022-11-11T09:31:21;99583.03;;;27.56;37.72
21576;BME280;10949;27.222;78.010;2022-11-11T09:34:32;99586.13;;;27.59;36.70
21576;BME280;10949;27.222;78.010;2022-11-11T09:37:26;99581.97;;;27.57;36.58
21576;BME280;10949;27.222;78.010;2022-11-11T09:40:18;99576.63;;;27.50;37.70
21576;BME280;10949;27.222;78.010;2022-11-11T09:43:18;99574.91;;;27.44;38.77
21576;BME280;10949;27.222;78.010;2022-11-11T09:46:22;99577.13;;;27.47;39.04
21576;BME280;10949;27.222;78.010;2022-11-11T09:52:42;99562.91;;;27.50;36.71
21576;BME280;10949;27.222;78.010;2022-11-11T09:55:40;99566.25;;;27.52;37.02
21576;BME280;10949;27.222;78.010;2022-11-11T09:58:35;99564.81;;;27.32;41.05
21576;BME280;10949;27.222;78.010;2022-11-11T10:01:30;99559.81;;;27.29;37.97
21576;BME280;10949;27.222;78.010;2022-11-11T10:04:33;99559.50;;;27.43;36.37
21576;BME280;10949;27.222;78.010;2022-11-11T10:07:34;99554.81;;;27.43;37.87
21576;BME280;10949;27.222;78.010;2022-11-11T10:10:33;99564.47;;;27.46;38.13
21576;BME280;10949;27.222;78.010;2022-11-11T10:13:31;99561.22;;;27.49;37.96
21576;BME280;10949;27.222;78.010;2022-11-11T10:16:41;99558.94;;;27.41;38.21
21576;BME280;10949;27.222;78.010;2022-11-11T10:19:40;99550.75;;;27.46;38.54
21576;BME280;10949;27.222;78.010;2022-11-11T10:22:38;99551.91;;;27.33;41.38
21576;BME280;10949;27.222;78.010;2022-11-11T10:25:32;99544.50;;;27.33;39.85
21576;BME280;10949;27.222;78.010;2022-11-11T10:28:34;99557.50;;;27.38;41.91
21576;BME280;10949;27.222;78.010;2022-11-11T10:31:26;99554.84;;;27.26;42.97
21576;BME280;10949;27.222;78.010;2022-11-11T10:34:19;99551.59;;;27.29;39.61
21576;BME280;10949;27.222;78.010;2022-11-11T10:37:18;99547.69;;;27.25;41.27
21576;BME280;10949;27.222;78.010;2022-11-11T10:40:16;99559.16;;;27.22;44.03
21576;BME280;10949;27.222;78.010;2022-11-11T10:43:20;99550.66;;;27.24;44.63
21576;BME280;10949;27.222;78.010;2022-11-11T10:46:14;99563.78;;;27.22;41.51
21576;BME280;10949;27.222;78.010;2022-11-11T10:49:14;99567.31;;;27.17;44.12
21576;BME280;10949;27.222;78.010;2022-11-11T10:52:11;99558.41;;;27.10;44.12
21576;BME280;10949;27.222;78.010;2022-11-11T10:55:08;99550.72;;;27.12;42.00
21576;BME280;10949;27.222;78.010;2022-11-11T10:58:06;99541.94;;;27.10;42.26
21576;BME280;10949;27.222;78.010;2022-11-11T11:01:09;99547.41;;;27.10;43.79
21576;BME280;10949;27.222;78.010;2022-11-11T11:04:05;99543.75;;;27.04;42.29
21576;BME280;10949;27.222;78.010;2022-11-11T11:06:59;99546.66;;;27.14;47.06
21576;BME280;10949;27.222;78.010;2022-11-11T11:09:57;99541.94;;;27.10;47.93
21576;BME280;10949;27.222;78.010;2022-11-11T11:12:53;99542.94;;;27.04;46.51
21576;BME280;10949;27.222;78.010;2022-11-11T11:15:54;99541.59;;;27.06;48.96
21576;BME280;10949;27.222;78.010;2022-11-11T11:19:13;99543.91;;;27.14;43.32
21576;BME280;10949;27.222;78.010;2022-11-11T11:22:05;99552.00;;;27.21;43.85
21576;BME280;10949;27.222;78.010;2022-11-11T11:25:08;99543.75;;;27.21;44.29
21576;BME280;10949;27.222;78.010;2022-11-11T11:28:08;99542.34;;;27.18;44.29
21576;BME280;10949;27.222;78.010;2022-11-11T11:30:59;99541.34;;;27.08;46.77
21576;BME280;10949;27.222;78.010;2022-11-11T11:33:54;99539.03;;;26.99;48.24
21576;BME280;10949;27.222;78.010;2022-11-11T11:36:58;99543.66;;;26.82;48.35
21576;BME280;10949;27.222;78.010;2022-11-11T11:39:58;99539.72;;;26.78;49.20
21576;BME280;10949;27.222;78.010;2022-11-11T11:42:49;99552.31;;;26.74;49.47
21576;BME280;10949;27.222;78.010;2022-11-11T11:45:40;99545.06;;;26.56;50.19
21576;BME280;10949;27.222;78.010;2022-11-11T11:48:49;99544.91;;;26.45;50.42
21576;BME280;10949;27.222;78.010;2022-11-11T11:51:50;99546.94;;;26.38;51.26
21576;BME280;10949;27.222;78.010;2022-11-11T11:54:54;99545.09;;;26.15;52.15
21576;BME280;10949;27.222;78.010;2022-11-11T11:58:06;99548.44;;;26.17;52.39
21576;BME280;10949;27.222;78.010;2022-11-11T12:01:04;99549.50;;;26.16;52.34
21576;BME280;10949;27.222;78.010;2022-11-11T12:07:31;99557.25;;;26.19;52.24
21576;BME280;10949;27.222;78.010;2022-11-11T12:10:34;99556.28;;;26.25;52.13
21576;BME280;10949;27.222;78.010;2022-11-11T12:13:37;99546.03;;;26.32;52.12
21576;BME280;10949;27.222;78.010;2022-11-11T12:16:36;99554.50;;;26.31;52.31
21576;BME280;10949;27.222;78.010;2022-11-11T12:19:41;99567.16;;;26.20;53.36
21576;BME280;10949;27.222;78.010;2022-11-11T12:22:49;99572.53;;;25.91;53.83
21576;BME280;10949;27.222;78.010;2022-11-11T12:25:55;99557.75;;;25.92;54.21
21576;BME280;10949;27.222;78.010;2022-11-11T12:29:06;99569.66;;;25.98;53.82
21576;BME280;10949;27.222;78.010;2022-11-11T12:32:13;99579.22;;;25.95;54.07
21576;BME280;10949;27.222;78.010;2022-11-11T12:35:21;99579.81;;;25.74;54.30
21576;BME280;10949;27.222;78.010;2022-11-11T12:38:28;99585.91;;;25.76;55.00
21576;BME280;10949;27.222;78.010;2022-11-11T12:41:37;99582.41;;;25.92;54.63
21576;BME280;10949;27.222;78.010;2022-11-11T12:44:36;99586.59;;;25.83;54.65
21576;BME280;10949;27.222;78.010;2022-11-11T12:47:36;99586.84;;;25.70;54.84
21576;BME280;10949;27.222;78.010;2022-11-11T12:50:34;99584.47;;;25.61;55.42
21576;BME280;10949;27.222;78.010;2022-11-11T12:53:34;99597.22;;;25.56;55.95
21576;BME280;10949;27.222;78.010;2022-11-11T12:56:33;99592.31;;;25.70;55.97
21576;BME280;10949;27.222;78.010;2022-11-11T12:59:35;99600.75;;;25.92;55.29
21576;BME280;10949;27.222;78.010;2022-11-11T13:02:45;99602.91;;;25.78;55.27
21576;BME280;10949;27.222;78.010;2022-11-11T13:05:43;99601.84;;;25.79;55.35
21576;BME280;10949;27.222;78.010;2022-11-11T13:08:56;99598.97;;;25.74;55.30
21576;BME280;10949;27.222;78.010;2022-11-11T13:11:58;99607.56;;;25.66;55.79
21576;BME280;10949;27.222;78.010;2022-11-11T13:14:56;99604.72;;;25.49;55.96
21576;BME280;10949;27.222;78.010;2022-11-11T13:17:50;99611.59;;;25.51;55.96
21576;BME280;10949;27.222;78.010;2022-11-11T13:20:46;99622.69;;;25.56;55.91
21576;BME280;10949;27.222;78.010;2022-11-11T13:23:40;99622.91;;;25.55;55.79
21576;BME280;10949;27.222;78.010;2022-11-11T13:26:36;99629.22;;;25.32;56.52
21576;BME280;10949;27.222;78.010;2022-11-11T13:33:02;99635.19;;;25.76;55.00
21576;BME280;10949;27.222;78.010;2022-11-11T13:35:55;99634.69;;;24.52;57.75
21576;BME280;10949;27.222;78.010;2022-11-11T13:38:51;99636.53;;;24.21;59.51
21576;BME280;10949;27.222;78.010;2022-11-11T13:41:49;99648.22;;;24.29;58.57
21576;BME280;10949;27.222;78.010;2022-11-11T13:44:46;99656.41;;;24.29;59.54
21576;BME280;10949;27.222;78.010;2022-11-11T13:47:42;99654.13;;;24.25;60.02
21576;BME280;10949;27.222;78.010;2022-11-11T13:50:36;99656.88;;;24.25;59.99
21576;BME280;10949;27.222;78.010;2022-11-11T13:53:29;99663.47;;;24.18;59.68
21576;BME280;10949;27.222;78.010;2022-11-11T13:56:26;99664.75;;;24.15;59.54
21576;BME280;10949;27.222;78.010;2022-11-11T13:59:23;99662.50;;;24.12;58.75
21576;BME280;10949;27.222;78.010;2022-11-11T14:02:33;99663.53;;;24.11;58.12
21576;BME280;10949;27.222;78.010;2022-11-11T14:05:24;99670.97;;;24.04;59.41
21576;BME280;10949;27.222;78.010;2022-11-11T14:08:50;99675.59;;;24.03;59.24
21576;BME280;10949;27.222;78.010;2022-11-11T14:11:43;99673.72;;;24.04;59.72
21576;BME280;10949;27.222;78.010;2022-11-11T14:14:55;99674.66;;;23.91;59.80
21576;BME280;10949;27.222;78.010;2022-11-11T14:17:45;99677.53;;;23.96;59.61
21576;BME280;10949;27.222;78.010;2022-11-11T14:20:40;99679.28;;;23.90;60.10
21576;BME280;10949;27.222;78.010;2022-11-11T14:23:34;99687.31;;;23.85;59.95
21576;BME280;10949;27.222;78.010;2022-11-11T14:26:27;99682.06;;;23.84;60.14
21576;BME280;10949;27.222;78.010;2022-11-11T14:29:19;99678.94;;;23.80;60.06
21576;BME280;10949;27.222;78.010;2022-11-11T14:35:32;99691.53;;;23.81;60.62
21576;BME280;10949;27.222;78.010;2022-11-11T14:38:34;99689.03;;;23.80;59.25
21576;BME280;10949;27.222;78.010;2022-11-11T14:41:48;99693.31;;;23.69;60.31
21576;BME280;10949;27.222;78.010;2022-11-11T14:44:41;99697.50;;;23.71;60.61
21576;BME280;10949;27.222;78.010;2022-11-11T14:47:34;99693.88;;;23.52;60.52
21576;BME280;10949;27.222;78.010;2022-11-11T14:50:51;99691.34;;;23.51;60.37
21576;BME280;10949;27.222;78.010;2022-11-11T14:53:41;99692.69;;;23.41;60.45
21576;BME280;10949;27.222;78.010;2022-11-11T14:56:41;99692.06;;;23.39;60.66
21576;BME280;10949;27.222;78.010;2022-11-11T14:59:32;99704.78;;;23.20;62.13
21576;BME280;10949;27.222;78.010;2022-11-11T15:02:32;99712.06;;;23.27;61.75
21576;BME280;10949;27.222;78.010;2022-11-11T15:05:30;99709.06;;;23.41;61.94
21576;BME280;10949;27.222;78.010;2022-11-11T15:08:35;99718.69;;;23.44;61.29
21576;BME280;10949;27.222;78.010;2022-11-11T15:11:36;99715.78;;;23.39;61.10
21576;BME280;10949;27.222;78.010;2022-11-11T15:14:36;99712.88;;;23.34;60.64
21576;BME280;10949;27.222;78.010;2022-11-11T15:17:41;99717.53;;;23.27;59.53
21576;BME280;10949;27.222;78.010;2022-11-11T15:20:58;99723.38;;;23.37;61.08
21576;BME280;10949;27.222;78.010;2022-11-11T15:23:59;99718.13;;;23.35;60.24
21576;BME280;10949;27.222;78.010;2022-11-11T15:26:59;99722.38;;;23.24;61.21
21576;BME280;10949;27.222;78.010;2022-11-11T15:30:22;99723.28;;;23.18;61.50
21576;BME280;10949;27.222;78.010;2022-11-11T15:33:20;99728.94;;;23.17;62.17
21576;BME280;10949;27.222;78.010;2022-11-11T15:36:20;99726.38;;;23.22;61.52